sensor_id;sensor_type;location;lat;lon;timestamp;P1;durP1;ratioP1;P2;durP2;ratioP2
65469;SDS011;52067;50.710;14.492;2022-11-20T00:03:38;99.55;;;31.95;;
65469;SDS011;52067;50.710;14.492;2022-11-20T00:06:05;124.10;;;39.65;;
65469;SDS011;52067;50.710;14.492;2022-11-20T00:08:32;157.52;;;45.05;;
65469;SDS011;52067;50.710;14.492;2022-11-20T00:11:02;148.57;;;44.47;;
65469;SDS011;52067;50.710;14.492;2022-11-20T00:13:28;153.25;;;45.60;;
65469;SDS011;52067;50.710;14.492;2022-11-20T00:15:57;186.30;;;54.08;;
65469;SDS011;52067;50.710;14.492;2022-11-20T00:18:23;98.72;;;33.28;;
65469;SDS011;52067;50.710;14.492;2022-11-20T00:20:49;80.63;;;27.38;;
65469;SDS011;52067;50.710;14.492;2022-11-20T00:23:14;66.18;;;24.60;;
65469;SDS011;52067;50.710;14.492;2022-11-20T00:25:40;74.30;;;25.58;;
65469;SDS011;52067;50.710;14.492;2022-11-20T00:28:05;69.85;;;25.40;;
65469;SDS011;52067;50.710;14.492;2022-11-20T00:30:30;96.38;;;31.30;;
65469;SDS011;52067;50.710;14.492;2022-11-20T00:32:56;92.53;;;29.58;;
65469;SDS011;52067;50.710;14.492;2022-11-20T00:35:22;121.68;;;36.30;;
65469;SDS011;52067;50.710;14.492;2022-11-20T00:37:48;144.38;;;41.95;;
65469;SDS011;52067;50.710;14.492;2022-11-20T00:40:13;161.43;;;43.05;;
65469;SDS011;52067;50.710;14.492;2022-11-20T00:42:39;101.20;;;32.22;;
65469;SDS011;52067;50.710;14.492;2022-11-20T00:45:04;119.05;;;36.47;;
65469;SDS011;52067;50.710;14.492;2022-11-20T00:47:30;165.48;;;43.00;;
65469;SDS011;52067;50.710;14.492;2022-11-20T00:49:55;166.88;;;46.15;;
65469;SDS011;52067;50.710;14.492;2022-11-20T00:52:21;182.75;;;47.45;;
65469;SDS011;52067;50.710;14.492;2022-11-20T00:54:46;172.23;;;48.45;;
65469;SDS011;52067;50.710;14.492;2022-11-20T00:57:11;180.80;;;52.58;;
65469;SDS011;52067;50.710;14.492;2022-11-20T00:59:37;198.23;;;58.85;;
65469;SDS011;52067;50.710;14.492;2022-11-20T01:02:02;345.17;;;94.53;;
65469;SDS011;52067;50.710;14.492;2022-11-20T01:04:27;385.88;;;104.75;;
65469;SDS011;52067;50.710;14.492;2022-11-20T01:06:53;369.33;;;105.05;;
65469;SDS011;52067;50.710;14.492;2022-11-20T01:09:18;213.80;;;53.60;;
65469;SDS011;52067;50.710;14.492;2022-11-20T01:11:44;192.00;;;49.38;;
65469;SDS011;52067;50.710;14.492;2022-11-20T01:14:14;163.27;;;46.88;;
65469;SDS011;52067;50.710;14.492;2022-11-20T01:16:42;169.13;;;43.10;;
65469;SDS011;52067;50.710;14.492;2022-11-20T01:19:11;145.57;;;42.45;;
65469;SDS011;52067;50.710;14.492;2022-11-20T01:21:39;186.10;;;43.28;;
65469;SDS011;52067;50.710;14.492;2022-11-20T01:24:07;177.98;;;46.13;;
65469;SDS011;52067;50.710;14.492;2022-11-20T01:26:37;164.00;;;44.90;;
65469;SDS011;52067;50.710;14.492;2022-11-20T01:29:04;184.68;;;50.30;;
65469;SDS011;52067;50.710;14.492;2022-11-20T01:31:35;174.60;;;46.40;;
65469;SDS011;52067;50.710;14.492;2022-11-20T01:34:05;221.23;;;53.83;;
65469;SDS011;52067;50.710;14.492;2022-11-20T01:36:33;177.98;;;47.50;;
65469;SDS011;52067;50.710;14.492;2022-11-20T01:39:04;152.55;;;43.47;;
65469;SDS011;52067;50.710;14.492;2022-11-20T01:41:32;175.77;;;46.50;;
65469;SDS011;52067;50.710;14.492;2022-11-20T01:44:18;150.82;;;40.25;;
65469;SDS011;52067;50.710;14.492;2022-11-20T01:47:06;136.27;;;36.40;;
65469;SDS011;52067;50.710;14.492;2022-11-20T01:49:54;133.52;;;37.70;;
65469;SDS011;52067;50.710;14.492;2022-11-20T01:52:25;125.88;;;33.58;;
65469;SDS011;52067;50.710;14.492;2022-11-20T01:55:18;109.18;;;32.13;;
65469;SDS011;52067;50.710;14.492;2022-11-20T01:57:48;93.95;;;26.35;;
65469;SDS011;52067;50.710;14.492;2022-11-20T02:00:15;143.50;;;38.85;;
65469;SDS011;52067;50.710;14.492;2022-11-20T02:02:44;180.60;;;47.85;;
65469;SDS011;52067;50.710;14.492;2022-11-20T02:05:18;98.90;;;28.98;;
65469;SDS011;52067;50.710;14.492;2022-11-20T02:07:48;91.85;;;28.88;;
65469;SDS011;52067;50.710;14.492;2022-11-20T02:10:15;102.57;;;29.90;;
65469;SDS011;52067;50.710;14.492;2022-11-20T02:12:41;86.32;;;26.17;;
65469;SDS011;52067;50.710;14.492;2022-11-20T02:15:25;117.43;;;34.30;;
65469;SDS011;52067;50.710;14.492;2022-11-20T02:17:50;92.68;;;30.98;;
65469;SDS011;52067;50.710;14.492;2022-11-20T02:20:16;90.43;;;27.20;;
65469;SDS011;52067;50.710;14.492;2022-11-20T02:22:46;66.05;;;21.58;;
65469;SDS011;52067;50.710;14.492;2022-11-20T02:25:18;97.00;;;29.80;;
65469;SDS011;52067;50.710;14.492;2022-11-20T02:27:44;194.10;;;47.67;;
65469;SDS011;52067;50.710;14.492;2022-11-20T02:30:10;72.80;;;24.15;;
65469;SDS011;52067;50.710;14.492;2022-11-20T02:32:36;131.68;;;35.22;;
65469;SDS011;52067;50.710;14.492;2022-11-20T02:37:43;74.90;;;26.27;;
65469;SDS011;52067;50.710;14.492;2022-11-20T02:40:10;60.42;;;21.60;;
65469;SDS011;52067;50.710;14.492;2022-11-20T02:42:36;215.70;;;47.80;;
65469;SDS011;52067;50.710;14.492;2022-11-20T02:45:03;72.40;;;25.38;;
65469;SDS011;52067;50.710;14.492;2022-11-20T02:47:29;70.10;;;22.10;;
65469;SDS011;52067;50.710;14.492;2022-11-20T02:49:55;85.07;;;27.02;;
65469;SDS011;52067;50.710;14.492;2022-11-20T02:52:20;87.75;;;25.77;;
65469;SDS011;52067;50.710;14.492;2022-11-20T02:54:45;104.45;;;30.27;;
65469;SDS011;52067;50.710;14.492;2022-11-20T02:57:11;108.15;;;30.83;;
65469;SDS011;52067;50.710;14.492;2022-11-20T02:59:36;88.00;;;27.25;;
65469;SDS011;52067;50.710;14.492;2022-11-20T03:02:01;89.10;;;29.38;;
65469;SDS011;52067;50.710;14.492;2022-11-20T03:04:27;95.22;;;31.35;;
65469;SDS011;52067;50.710;14.492;2022-11-20T03:06:52;156.68;;;39.42;;
65469;SDS011;52067;50.710;14.492;2022-11-20T03:09:18;90.70;;;27.58;;
65469;SDS011;52067;50.710;14.492;2022-11-20T03:11:43;94.57;;;29.65;;
65469;SDS011;52067;50.710;14.492;2022-11-20T03:14:08;174.75;;;43.10;;
65469;SDS011;52067;50.710;14.492;2022-11-20T03:16:34;118.40;;;33.42;;
65469;SDS011;52067;50.710;14.492;2022-11-20T03:18:59;96.13;;;29.55;;
65469;SDS011;52067;50.710;14.492;2022-11-20T03:21:25;87.20;;;28.38;;
65469;SDS011;52067;50.710;14.492;2022-11-20T03:23:51;99.47;;;30.40;;
65469;SDS011;52067;50.710;14.492;2022-11-20T03:26:20;89.90;;;27.27;;
65469;SDS011;52067;50.710;14.492;2022-11-20T03:28:47;102.05;;;28.15;;
65469;SDS011;52067;50.710;14.492;2022-11-20T03:31:18;85.30;;;23.95;;
65469;SDS011;52067;50.710;14.492;2022-11-20T03:33:45;91.22;;;26.65;;
65469;SDS011;52067;50.710;14.492;2022-11-20T03:36:12;66.72;;;23.92;;
65469;SDS011;52067;50.710;14.492;2022-11-20T03:38:39;88.28;;;29.05;;
65469;SDS011;52067;50.710;14.492;2022-11-20T03:41:06;68.93;;;21.20;;
65469;SDS011;52067;50.710;14.492;2022-11-20T03:43:33;91.90;;;27.20;;
65469;SDS011;52067;50.710;14.492;2022-11-20T03:45:59;90.28;;;24.90;;
65469;SDS011;52067;50.710;14.492;2022-11-20T03:48:25;94.97;;;28.45;;
65469;SDS011;52067;50.710;14.492;2022-11-20T03:50:51;89.55;;;27.35;;
65469;SDS011;52067;50.710;14.492;2022-11-20T03:53:17;87.57;;;28.92;;
65469;SDS011;52067;50.710;14.492;2022-11-20T03:55:43;217.93;;;52.90;;
65469;SDS011;52067;50.710;14.492;2022-11-20T03:58:09;113.20;;;29.90;;
65469;SDS011;52067;50.710;14.492;2022-11-20T04:00:35;86.68;;;27.02;;
65469;SDS011;52067;50.710;14.492;2022-11-20T04:03:01;95.20;;;28.40;;
65469;SDS011;52067;50.710;14.492;2022-11-20T04:05:27;75.22;;;25.00;;
65469;SDS011;52067;50.710;14.492;2022-11-20T04:07:53;72.05;;;24.70;;
65469;SDS011;52067;50.710;14.492;2022-11-20T04:10:18;81.00;;;24.85;;
65469;SDS011;52067;50.710;14.492;2022-11-20T04:12:44;77.47;;;26.20;;
65469;SDS011;52067;50.710;14.492;2022-11-20T04:15:10;80.20;;;26.10;;
65469;SDS011;52067;50.710;14.492;2022-11-20T04:17:35;83.68;;;24.98;;
65469;SDS011;52067;50.710;14.492;2022-11-20T04:20:01;70.32;;;25.38;;
65469;SDS011;52067;50.710;14.492;2022-11-20T04:22:26;58.85;;;20.58;;
65469;SDS011;52067;50.710;14.492;2022-11-20T04:24:52;82.30;;;22.77;;
65469;SDS011;52067;50.710;14.492;2022-11-20T04:27:17;98.15;;;28.40;;
65469;SDS011;52067;50.710;14.492;2022-11-20T04:29:42;77.57;;;25.88;;
65469;SDS011;52067;50.710;14.492;2022-11-20T04:32:08;96.60;;;27.13;;
65469;SDS011;52067;50.710;14.492;2022-11-20T04:34:33;80.80;;;23.48;;
65469;SDS011;52067;50.710;14.492;2022-11-20T04:36:59;92.10;;;24.55;;
65469;SDS011;52067;50.710;14.492;2022-11-20T04:39:24;100.30;;;23.45;;
65469;SDS011;52067;50.710;14.492;2022-11-20T04:41:49;88.15;;;24.35;;
65469;SDS011;52067;50.710;14.492;2022-11-20T04:44:35;66.07;;;21.25;;
65469;SDS011;52067;50.710;14.492;2022-11-20T04:47:00;76.72;;;23.35;;
65469;SDS011;52067;50.710;14.492;2022-11-20T04:49:25;74.78;;;22.80;;
65469;SDS011;52067;50.710;14.492;2022-11-20T04:51:52;83.75;;;23.85;;
65469;SDS011;52067;50.710;14.492;2022-11-20T04:54:18;67.28;;;22.45;;
65469;SDS011;52067;50.710;14.492;2022-11-20T04:56:46;83.43;;;22.83;;
65469;SDS011;52067;50.710;14.492;2022-11-20T04:59:12;90.47;;;23.08;;
65469;SDS011;52067;50.710;14.492;2022-11-20T05:01:38;88.00;;;24.35;;
65469;SDS011;52067;50.710;14.492;2022-11-20T05:04:03;85.97;;;22.92;;
65469;SDS011;52067;50.710;14.492;2022-11-20T05:06:29;93.40;;;24.08;;
65469;SDS011;52067;50.710;14.492;2022-11-20T05:08:54;106.45;;;25.00;;
65469;SDS011;52067;50.710;14.492;2022-11-20T05:11:20;84.32;;;22.45;;
65469;SDS011;52067;50.710;14.492;2022-11-20T05:13:46;70.28;;;20.42;;
65469;SDS011;52067;50.710;14.492;2022-11-20T05:16:13;69.15;;;20.35;;
65469;SDS011;52067;50.710;14.492;2022-11-20T05:18:40;80.72;;;23.52;;
65469;SDS011;52067;50.710;14.492;2022-11-20T05:21:06;116.45;;;31.63;;
65469;SDS011;52067;50.710;14.492;2022-11-20T05:23:33;61.92;;;19.63;;
65469;SDS011;52067;50.710;14.492;2022-11-20T05:25:59;102.53;;;30.85;;
65469;SDS011;52067;50.710;14.492;2022-11-20T05:28:25;96.40;;;27.13;;
65469;SDS011;52067;50.710;14.492;2022-11-20T05:30:51;65.45;;;22.05;;
65469;SDS011;52067;50.710;14.492;2022-11-20T05:33:17;150.73;;;44.10;;
65469;SDS011;52067;50.710;14.492;2022-11-20T05:35:43;153.65;;;40.78;;
65469;SDS011;52067;50.710;14.492;2022-11-20T05:38:08;102.38;;;28.25;;
65469;SDS011;52067;50.710;14.492;2022-11-20T05:40:34;152.20;;;38.20;;
65469;SDS011;52067;50.710;14.492;2022-11-20T05:43:00;124.30;;;32.30;;
65469;SDS011;52067;50.710;14.492;2022-11-20T05:45:25;94.70;;;27.65;;
65469;SDS011;52067;50.710;14.492;2022-11-20T05:47:51;68.53;;;23.17;;
65469;SDS011;52067;50.710;14.492;2022-11-20T05:50:16;102.20;;;29.77;;
65469;SDS011;52067;50.710;14.492;2022-11-20T05:52:42;69.28;;;21.83;;
65469;SDS011;52067;50.710;14.492;2022-11-20T05:55:07;83.22;;;23.20;;
65469;SDS011;52067;50.710;14.492;2022-11-20T05:57:33;63.90;;;18.25;;
65469;SDS011;52067;50.710;14.492;2022-11-20T05:59:58;68.28;;;19.58;;
65469;SDS011;52067;50.710;14.492;2022-11-20T06:02:23;80.05;;;25.58;;
65469;SDS011;52067;50.710;14.492;2022-11-20T06:04:49;81.65;;;23.20;;
65469;SDS011;52067;50.710;14.492;2022-11-20T06:07:14;69.63;;;22.45;;
65469;SDS011;52067;50.710;14.492;2022-11-20T06:09:40;64.80;;;22.83;;
65469;SDS011;52067;50.710;14.492;2022-11-20T06:12:05;100.18;;;28.67;;
65469;SDS011;52067;50.710;14.492;2022-11-20T06:14:31;118.53;;;29.13;;
65469;SDS011;52067;50.710;14.492;2022-11-20T06:16:57;111.03;;;30.70;;
65469;SDS011;52067;50.710;14.492;2022-11-20T06:19:23;104.45;;;28.92;;
65469;SDS011;52067;50.710;14.492;2022-11-20T06:21:48;170.90;;;36.83;;
65469;SDS011;52067;50.710;14.492;2022-11-20T06:24:14;68.95;;;22.88;;
65469;SDS011;52067;50.710;14.492;2022-11-20T06:26:40;82.15;;;26.02;;
65469;SDS011;52067;50.710;14.492;2022-11-20T06:29:06;96.65;;;27.27;;
65469;SDS011;52067;50.710;14.492;2022-11-20T06:31:31;85.75;;;24.17;;
65469;SDS011;52067;50.710;14.492;2022-11-20T06:34:02;89.40;;;26.30;;
65469;SDS011;52067;50.710;14.492;2022-11-20T06:36:29;48.13;;;17.23;;
65469;SDS011;52067;50.710;14.492;2022-11-20T06:38:54;61.78;;;23.05;;
65469;SDS011;52067;50.710;14.492;2022-11-20T06:41:20;83.00;;;24.35;;
65469;SDS011;52067;50.710;14.492;2022-11-20T06:43:46;47.10;;;18.08;;
65469;SDS011;52067;50.710;14.492;2022-11-20T06:46:12;65.20;;;22.20;;
65469;SDS011;52067;50.710;14.492;2022-11-20T06:48:39;69.65;;;23.20;;
65469;SDS011;52067;50.710;14.492;2022-11-20T06:51:05;63.45;;;21.75;;
65469;SDS011;52067;50.710;14.492;2022-11-20T06:53:31;54.20;;;19.27;;
65469;SDS011;52067;50.710;14.492;2022-11-20T06:55:57;64.65;;;21.30;;
65469;SDS011;52067;50.710;14.492;2022-11-20T06:58:25;63.97;;;23.98;;
65469;SDS011;52067;50.710;14.492;2022-11-20T07:00:52;80.85;;;27.08;;
65469;SDS011;52067;50.710;14.492;2022-11-20T07:03:17;72.22;;;25.30;;
65469;SDS011;52067;50.710;14.492;2022-11-20T07:05:43;61.30;;;21.95;;
65469;SDS011;52067;50.710;14.492;2022-11-20T07:08:10;57.42;;;21.77;;
65469;SDS011;52067;50.710;14.492;2022-11-20T07:10:35;54.60;;;19.33;;
65469;SDS011;52067;50.710;14.492;2022-11-20T07:13:01;74.10;;;25.98;;
65469;SDS011;52067;50.710;14.492;2022-11-20T07:15:26;84.05;;;27.17;;
65469;SDS011;52067;50.710;14.492;2022-11-20T07:17:52;70.47;;;24.55;;
65469;SDS011;52067;50.710;14.492;2022-11-20T07:20:17;74.40;;;24.95;;
65469;SDS011;52067;50.710;14.492;2022-11-20T07:22:43;72.90;;;24.75;;
65469;SDS011;52067;50.710;14.492;2022-11-20T07:25:09;59.30;;;23.67;;
65469;SDS011;52067;50.710;14.492;2022-11-20T07:27:35;64.13;;;20.95;;
65469;SDS011;52067;50.710;14.492;2022-11-20T07:30:01;60.63;;;21.63;;
65469;SDS011;52067;50.710;14.492;2022-11-20T07:32:27;53.97;;;21.08;;
65469;SDS011;52067;50.710;14.492;2022-11-20T07:34:52;58.97;;;21.00;;
65469;SDS011;52067;50.710;14.492;2022-11-20T07:37:18;60.85;;;19.58;;
65469;SDS011;52067;50.710;14.492;2022-11-20T07:39:43;61.20;;;21.77;;
65469;SDS011;52067;50.710;14.492;2022-11-20T07:42:09;54.03;;;18.65;;
65469;SDS011;52067;50.710;14.492;2022-11-20T07:44:34;52.05;;;20.10;;
65469;SDS011;52067;50.710;14.492;2022-11-20T07:47:00;42.08;;;17.50;;
65469;SDS011;52067;50.710;14.492;2022-11-20T07:49:26;63.97;;;24.25;;
65469;SDS011;52067;50.710;14.492;2022-11-20T07:51:52;46.70;;;15.93;;
65469;SDS011;52067;50.710;14.492;2022-11-20T07:54:20;67.78;;;24.65;;
65469;SDS011;52067;50.710;14.492;2022-11-20T07:56:46;57.47;;;22.33;;
65469;SDS011;52067;50.710;14.492;2022-11-20T07:59:12;52.78;;;19.95;;
65469;SDS011;52067;50.710;14.492;2022-11-20T08:01:38;49.90;;;19.70;;
65469;SDS011;52067;50.710;14.492;2022-11-20T08:04:04;59.60;;;22.77;;
65469;SDS011;52067;50.710;14.492;2022-11-20T08:06:30;60.55;;;19.55;;
65469;SDS011;52067;50.710;14.492;2022-11-20T08:08:55;54.00;;;20.15;;
65469;SDS011;52067;50.710;14.492;2022-11-20T08:11:21;63.72;;;23.75;;
65469;SDS011;52067;50.710;14.492;2022-11-20T08:14:05;72.57;;;24.48;;
65469;SDS011;52067;50.710;14.492;2022-11-20T08:16:36;83.03;;;25.73;;
65469;SDS011;52067;50.710;14.492;2022-11-20T08:19:02;75.13;;;25.02;;
65469;SDS011;52067;50.710;14.492;2022-11-20T08:21:27;141.95;;;38.10;;
65469;SDS011;52067;50.710;14.492;2022-11-20T08:23:52;88.57;;;32.25;;
65469;SDS011;52067;50.710;14.492;2022-11-20T08:26:18;94.63;;;32.10;;
65469;SDS011;52067;50.710;14.492;2022-11-20T08:28:43;106.57;;;34.97;;
65469;SDS011;52067;50.710;14.492;2022-11-20T08:31:09;72.03;;;26.95;;
65469;SDS011;52067;50.710;14.492;2022-11-20T08:33:35;134.40;;;47.45;;
65469;SDS011;52067;50.710;14.492;2022-11-20T08:36:01;106.72;;;36.28;;
65469;SDS011;52067;50.710;14.492;2022-11-20T08:38:28;80.10;;;30.42;;
65469;SDS011;52067;50.710;14.492;2022-11-20T08:41:00;68.68;;;25.17;;
65469;SDS011;52067;50.710;14.492;2022-11-20T08:43:46;81.78;;;28.65;;
65469;SDS011;52067;50.710;14.492;2022-11-20T08:46:15;95.70;;;32.90;;
65469;SDS011;52067;50.710;14.492;2022-11-20T08:48:41;97.25;;;30.92;;
65469;SDS011;52067;50.710;14.492;2022-11-20T08:51:07;96.22;;;32.05;;
65469;SDS011;52067;50.710;14.492;2022-11-20T08:53:32;87.75;;;28.83;;
65469;SDS011;52067;50.710;14.492;2022-11-20T08:55:57;66.00;;;26.10;;
65469;SDS011;52067;50.710;14.492;2022-11-20T08:58:23;79.85;;;26.33;;
65469;SDS011;52067;50.710;14.492;2022-11-20T09:00:49;82.38;;;28.25;;
65469;SDS011;52067;50.710;14.492;2022-11-20T09:03:14;65.82;;;24.25;;
65469;SDS011;52067;50.710;14.492;2022-11-20T09:05:40;70.40;;;25.90;;
65469;SDS011;52067;50.710;14.492;2022-11-20T09:08:05;55.33;;;21.35;;
65469;SDS011;52067;50.710;14.492;2022-11-20T09:10:31;60.70;;;22.02;;
65469;SDS011;52067;50.710;14.492;2022-11-20T09:12:57;50.03;;;19.65;;
65469;SDS011;52067;50.710;14.492;2022-11-20T09:15:23;61.05;;;23.52;;
65469;SDS011;52067;50.710;14.492;2022-11-20T09:20:17;74.40;;;25.02;;
65469;SDS011;52067;50.710;14.492;2022-11-20T09:22:43;67.50;;;23.63;;
65469;SDS011;52067;50.710;14.492;2022-11-20T09:25:09;66.13;;;21.10;;
65469;SDS011;52067;50.710;14.492;2022-11-20T09:27:34;60.58;;;22.05;;
65469;SDS011;52067;50.710;14.492;2022-11-20T09:30:00;59.95;;;24.40;;
65469;SDS011;52067;50.710;14.492;2022-11-20T09:32:26;61.78;;;22.48;;
65469;SDS011;52067;50.710;14.492;2022-11-20T09:34:51;60.70;;;21.20;;
65469;SDS011;52067;50.710;14.492;2022-11-20T09:37:17;43.80;;;18.05;;
65469;SDS011;52067;50.710;14.492;2022-11-20T09:39:42;56.22;;;22.42;;
65469;SDS011;52067;50.710;14.492;2022-11-20T09:50:57;51.25;;;19.98;;
65469;SDS011;52067;50.710;14.492;2022-11-20T09:56:40;49.40;;;20.02;;
65469;SDS011;52067;50.710;14.492;2022-11-20T09:59:14;48.47;;;19.20;;
65469;SDS011;52067;50.710;14.492;2022-11-20T10:01:54;56.45;;;20.83;;
65469;SDS011;52067;50.710;14.492;2022-11-20T10:04:20;48.55;;;20.67;;
65469;SDS011;52067;50.710;14.492;2022-11-20T10:07:03;63.60;;;22.92;;
65469;SDS011;52067;50.710;14.492;2022-11-20T10:09:39;62.00;;;24.02;;
65469;SDS011;52067;50.710;14.492;2022-11-20T10:25:28;58.78;;;22.85;;
65469;SDS011;52067;50.710;14.492;2022-11-20T10:30:29;41.75;;;17.55;;
65469;SDS011;52067;50.710;14.492;2022-11-20T10:32:59;50.53;;;20.63;;
65469;SDS011;52067;50.710;14.492;2022-11-20T10:35:37;59.55;;;23.92;;
65469;SDS011;52067;50.710;14.492;2022-11-20T10:38:20;38.83;;;14.55;;
65469;SDS011;52067;50.710;14.492;2022-11-20T10:40:59;44.03;;;19.92;;
65469;SDS011;52067;50.710;14.492;2022-11-20T10:43:46;47.17;;;20.23;;
65469;SDS011;52067;50.710;14.492;2022-11-20T10:46:16;47.00;;;19.98;;
65469;SDS011;52067;50.710;14.492;2022-11-20T10:48:46;44.75;;;18.95;;
65469;SDS011;52067;50.710;14.492;2022-11-20T10:56:42;54.40;;;21.83;;
65469;SDS011;52067;50.710;14.492;2022-11-20T11:01:58;42.80;;;18.48;;
65469;SDS011;52067;50.710;14.492;2022-11-20T11:04:35;51.95;;;19.27;;
65469;SDS011;52067;50.710;14.492;2022-11-20T11:09:48;47.55;;;20.20;;
65469;SDS011;52067;50.710;14.492;2022-11-20T11:12:17;43.22;;;19.35;;
65469;SDS011;52067;50.710;14.492;2022-11-20T11:14:44;51.33;;;20.02;;
65469;SDS011;52067;50.710;14.492;2022-11-20T11:22:42;54.28;;;22.38;;
65469;SDS011;52067;50.710;14.492;2022-11-20T11:25:17;55.72;;;23.08;;
65469;SDS011;52067;50.710;14.492;2022-11-20T11:27:48;60.13;;;24.58;;
65469;SDS011;52067;50.710;14.492;2022-11-20T11:30:16;51.38;;;21.20;;
65469;SDS011;52067;50.710;14.492;2022-11-20T11:32:42;53.50;;;20.73;;
65469;SDS011;52067;50.710;14.492;2022-11-20T11:35:18;47.78;;;20.05;;
65469;SDS011;52067;50.710;14.492;2022-11-20T11:37:48;49.33;;;21.17;;
65469;SDS011;52067;50.710;14.492;2022-11-20T11:40:15;48.10;;;20.45;;
65469;SDS011;52067;50.710;14.492;2022-11-20T11:42:43;53.30;;;19.40;;
65469;SDS011;52067;50.710;14.492;2022-11-20T11:45:14;51.72;;;21.13;;
65469;SDS011;52067;50.710;14.492;2022-11-20T11:50:26;48.28;;;20.50;;
65469;SDS011;52067;50.710;14.492;2022-11-20T11:53:00;44.35;;;18.15;;
65469;SDS011;52067;50.710;14.492;2022-11-20T12:00:47;43.67;;;18.27;;
65469;SDS011;52067;50.710;14.492;2022-11-20T12:03:23;46.97;;;20.63;;
65469;SDS011;52067;50.710;14.492;2022-11-20T12:06:06;51.73;;;20.67;;
65469;SDS011;52067;50.710;14.492;2022-11-20T12:11:37;42.25;;;17.83;;
65469;SDS011;52067;50.710;14.492;2022-11-20T12:16:58;43.53;;;17.52;;
65469;SDS011;52067;50.710;14.492;2022-11-20T12:19:26;43.85;;;17.40;;
65469;SDS011;52067;50.710;14.492;2022-11-20T12:38:26;49.00;;;20.30;;
65469;SDS011;52067;50.710;14.492;2022-11-20T12:41:02;48.40;;;20.90;;
65469;SDS011;52067;50.710;14.492;2022-11-20T12:43:39;51.58;;;21.58;;
65469;SDS011;52067;50.710;14.492;2022-11-20T12:57:09;54.38;;;21.80;;
65469;SDS011;52067;50.710;14.492;2022-11-20T13:00:40;46.65;;;19.50;;
65469;SDS011;52067;50.710;14.492;2022-11-20T13:05:48;64.25;;;23.33;;
65469;SDS011;52067;50.710;14.492;2022-11-20T13:08:21;47.50;;;20.23;;
65469;SDS011;52067;50.710;14.492;2022-11-20T13:10:50;55.58;;;22.33;;
65469;SDS011;52067;50.710;14.492;2022-11-20T13:16:17;56.35;;;23.02;;
65469;SDS011;52067;50.710;14.492;2022-11-20T13:19:02;50.15;;;20.98;;
65469;SDS011;52067;50.710;14.492;2022-11-20T13:21:37;49.40;;;21.20;;
65469;SDS011;52067;50.710;14.492;2022-11-20T13:24:07;53.78;;;23.50;;
65469;SDS011;52067;50.710;14.492;2022-11-20T13:26:45;48.55;;;21.25;;
65469;SDS011;52067;50.710;14.492;2022-11-20T13:29:11;49.47;;;21.05;;
65469;SDS011;52067;50.710;14.492;2022-11-20T13:31:43;61.03;;;24.52;;
65469;SDS011;52067;50.710;14.492;2022-11-20T13:34:22;63.13;;;23.10;;
65469;SDS011;52067;50.710;14.492;2022-11-20T13:36:51;59.28;;;23.75;;
65469;SDS011;52067;50.710;14.492;2022-11-20T13:39:25;57.60;;;24.02;;
65469;SDS011;52067;50.710;14.492;2022-11-20T13:41:55;50.45;;;23.00;;
65469;SDS011;52067;50.710;14.492;2022-11-20T13:44:29;57.35;;;23.90;;
65469;SDS011;52067;50.710;14.492;2022-11-20T13:46:57;62.80;;;26.95;;
65469;SDS011;52067;50.710;14.492;2022-11-20T13:49:27;62.63;;;25.08;;
65469;SDS011;52067;50.710;14.492;2022-11-20T14:01:55;52.63;;;21.70;;
65469;SDS011;52067;50.710;14.492;2022-11-20T14:04:28;58.30;;;24.05;;
65469;SDS011;52067;50.710;14.492;2022-11-20T14:06:57;60.97;;;22.77;;
65469;SDS011;52067;50.710;14.492;2022-11-20T14:09:28;66.03;;;26.20;;
65469;SDS011;52067;50.710;14.492;2022-11-20T14:11:55;83.60;;;31.00;;
65469;SDS011;52067;50.710;14.492;2022-11-20T14:14:22;68.93;;;25.88;;
65469;SDS011;52067;50.710;14.492;2022-11-20T14:16:49;59.50;;;25.90;;
65469;SDS011;52067;50.710;14.492;2022-11-20T14:21:51;64.32;;;26.00;;
65469;SDS011;52067;50.710;14.492;2022-11-20T14:24:19;71.00;;;27.55;;
65469;SDS011;52067;50.710;14.492;2022-11-20T14:26:49;59.17;;;24.60;;
65469;SDS011;52067;50.710;14.492;2022-11-20T14:29:16;64.68;;;24.38;;
65469;SDS011;52067;50.710;14.492;2022-11-20T14:31:47;51.50;;;22.45;;
65469;SDS011;52067;50.710;14.492;2022-11-20T14:34:26;50.58;;;21.85;;
65469;SDS011;52067;50.710;14.492;2022-11-20T14:36:58;50.50;;;21.60;;
65469;SDS011;52067;50.710;14.492;2022-11-20T14:39:32;49.17;;;21.50;;
65469;SDS011;52067;50.710;14.492;2022-11-20T14:41:59;57.22;;;22.58;;
65469;SDS011;52067;50.710;14.492;2022-11-20T14:44:29;55.78;;;23.63;;
65469;SDS011;52067;50.710;14.492;2022-11-20T14:46:57;58.17;;;24.63;;
65469;SDS011;52067;50.710;14.492;2022-11-20T14:49:24;59.80;;;23.95;;
65469;SDS011;52067;50.710;14.492;2022-11-20T14:52:00;51.85;;;21.55;;
65469;SDS011;52067;50.710;14.492;2022-11-20T14:54:27;66.40;;;27.13;;
65469;SDS011;52067;50.710;14.492;2022-11-20T14:56:57;54.03;;;21.38;;
65469;SDS011;52067;50.710;14.492;2022-11-20T14:59:28;52.85;;;20.27;;
65469;SDS011;52067;50.710;14.492;2022-11-20T15:01:59;80.30;;;32.72;;
65469;SDS011;52067;50.710;14.492;2022-11-20T15:04:27;47.53;;;20.17;;
65469;SDS011;52067;50.710;14.492;2022-11-20T15:06:54;46.13;;;18.80;;
65469;SDS011;52067;50.710;14.492;2022-11-20T15:09:20;45.60;;;19.80;;
65469;SDS011;52067;50.710;14.492;2022-11-20T15:11:56;47.13;;;20.48;;
65469;SDS011;52067;50.710;14.492;2022-11-20T15:14:24;48.63;;;20.70;;
65469;SDS011;52067;50.710;14.492;2022-11-20T15:16:50;51.20;;;19.23;;
65469;SDS011;52067;50.710;14.492;2022-11-20T15:19:17;51.17;;;21.00;;
65469;SDS011;52067;50.710;14.492;2022-11-20T15:21:45;50.22;;;21.02;;
65469;SDS011;52067;50.710;14.492;2022-11-20T15:24:11;56.75;;;22.80;;
65469;SDS011;52067;50.710;14.492;2022-11-20T15:26:36;52.53;;;21.48;;
65469;SDS011;52067;50.710;14.492;2022-11-20T15:29:05;49.78;;;20.65;;
65469;SDS011;52067;50.710;14.492;2022-11-20T15:31:32;60.15;;;22.08;;
65469;SDS011;52067;50.710;14.492;2022-11-20T15:33:58;56.35;;;22.30;;
65469;SDS011;52067;50.710;14.492;2022-11-20T15:36:23;54.60;;;21.73;;
65469;SDS011;52067;50.710;14.492;2022-11-20T15:38:48;52.63;;;20.70;;
65469;SDS011;52067;50.710;14.492;2022-11-20T15:41:13;57.55;;;22.00;;
65469;SDS011;52067;50.710;14.492;2022-11-20T15:43:39;54.05;;;23.67;;
65469;SDS011;52067;50.710;14.492;2022-11-20T15:46:05;57.67;;;22.10;;
65469;SDS011;52067;50.710;14.492;2022-11-20T15:48:44;63.13;;;25.00;;
65469;SDS011;52067;50.710;14.492;2022-11-20T15:53:36;59.25;;;24.15;;
65469;SDS011;52067;50.710;14.492;2022-11-20T15:56:02;62.15;;;24.35;;
65469;SDS011;52067;50.710;14.492;2022-11-20T15:58:28;58.15;;;24.45;;
65469;SDS011;52067;50.710;14.492;2022-11-20T16:00:53;58.28;;;24.83;;
65469;SDS011;52067;50.710;14.492;2022-11-20T16:03:19;74.32;;;28.88;;
65469;SDS011;52067;50.710;14.492;2022-11-20T16:05:45;67.63;;;26.48;;